createdAt,value
2022-10-23T00:00:11.071Z,15.93
2022-10-23T00:05:04.615Z,15.13
2022-10-23T00:09:59.079Z,16.77
2022-10-23T00:14:52.189Z,15.35
2022-10-23T00:19:45.244Z,16.15
2022-10-23T00:24:38.610Z,21.48
2022-10-23T00:29:33.227Z,21.35
2022-10-23T00:34:26.460Z,16.50
2022-10-23T00:39:19.539Z,14.80
2022-10-23T00:44:51.599Z,14.57
2022-10-23T00:49:46.257Z,14.65
2022-10-23T00:54:44.587Z,13.93
2022-10-23T00:59:37.698Z,13.85
2022-10-23T01:04:31.490Z,14.38
2022-10-23T01:09:32.464Z,14.00
2022-10-23T01:14:38.042Z,13.70
2022-10-23T01:19:47.674Z,13.63
2022-10-23T01:24:50.730Z,13.95
2022-10-23T01:29:50.569Z,13.27
2022-10-23T01:34:48.915Z,12.15
2022-10-23T01:39:49.501Z,12.85
2022-10-23T01:44:47.723Z,13.60
2022-10-23T01:49:43.357Z,13.18
2022-10-23T01:54:39.513Z,11.77
2022-10-23T01:59:36.902Z,12.50
2022-10-23T02:04:37.602Z,11.60
2022-10-23T02:09:31.177Z,11.90
2022-10-23T02:14:37.260Z,11.88
2022-10-23T02:19:36.397Z,11.27
2022-10-23T02:24:39.733Z,11.52
2022-10-23T02:29:39.829Z,11.40
2022-10-23T02:34:34.618Z,11.77
2022-10-23T02:39:29.294Z,10.82
2022-10-23T02:44:33.477Z,10.52
2022-10-23T02:49:35.381Z,9.65
2022-10-23T02:54:42.601Z,9.18
2022-10-23T02:59:42.151Z,9.98
2022-10-23T03:04:38.947Z,9.25
2022-10-23T03:09:33.438Z,9.13
2022-10-23T03:14:26.594Z,10.35
2022-10-23T03:19:19.702Z,9.15
2022-10-23T03:24:12.853Z,9.93
2022-10-23T03:29:10.628Z,11.73
2022-10-23T03:34:11.366Z,12.05
2022-10-23T03:39:06.723Z,11.52
2022-10-23T03:44:00.142Z,11.95
2022-10-23T03:48:55.535Z,12.35
2022-10-23T03:53:48.701Z,11.80
2022-10-23T03:58:42.594Z,13.32
2022-10-23T04:03:35.868Z,12.05
2022-10-23T04:08:30.433Z,11.93
2022-10-23T04:13:23.668Z,10.63
2022-10-23T04:18:17.333Z,10.50
2022-10-23T04:23:10.533Z,10.88
2022-10-23T04:28:06.139Z,10.25
2022-10-23T04:33:03.850Z,10.63
2022-10-23T04:37:59.170Z,11.38
2022-10-23T04:42:52.278Z,11.90
2022-10-23T04:47:46.857Z,11.15
2022-10-23T04:52:40.130Z,9.90
2022-10-23T04:58:11.003Z,12.38
2022-10-23T05:03:05.600Z,11.45
2022-10-23T05:08:05.985Z,11.07
2022-10-23T05:13:31.748Z,9.25
2022-10-23T05:18:31.314Z,9.63
2022-10-23T05:23:26.649Z,10.10
2022-10-23T05:28:26.912Z,10.90
2022-10-23T05:33:20.465Z,9.52
2022-10-23T05:38:18.120Z,10.15
2022-10-23T05:43:11.679Z,10.15
2022-10-23T05:48:34.275Z,9.65
2022-10-23T05:53:47.991Z,10.73
2022-10-23T05:58:46.183Z,9.43
2022-10-23T06:03:43.861Z,10.45
2022-10-23T06:08:38.364Z,9.43
2022-10-23T06:13:32.951Z,9.70
2022-10-23T06:18:26.614Z,9.45
2022-10-23T06:23:32.037Z,9.70
2022-10-23T06:28:42.842Z,9.02
2022-10-23T06:33:36.717Z,9.20
2022-10-23T06:38:36.759Z,8.88
2022-10-23T06:43:30.640Z,8.07
2022-10-23T06:48:45.925Z,8.18
2022-10-23T06:53:46.554Z,7.13
2022-10-23T06:58:59.953Z,6.82
2022-10-23T07:03:54.718Z,6.43
2022-10-23T07:08:52.554Z,5.27
2022-10-23T07:14:04.140Z,5.68
2022-10-23T07:19:01.293Z,4.72
2022-10-23T07:31:04.899Z,4.85
2022-10-23T07:36:37.426Z,4.13
2022-10-23T07:54:20.961Z,3.60
2022-10-23T08:00:46.086Z,4.00
2022-10-23T08:07:20.986Z,4.03
2022-10-23T10:12:04.057Z,3.20
2022-10-23T11:34:34.623Z,2.53
2022-10-23T11:46:40.152Z,2.55
2022-10-23T11:52:42.042Z,3.03
2022-10-23T12:19:51.751Z,2.28
2022-10-23T12:53:00.787Z,2.33
2022-10-23T13:12:09.016Z,2.38
2022-10-23T13:17:17.048Z,2.20
2022-10-23T13:47:16.284Z,2.60
2022-10-23T13:47:30.864Z,2.50
2022-10-23T13:52:25.137Z,2.35
2022-10-23T13:57:33.601Z,2.42
2022-10-23T14:02:41.507Z,2.63
2022-10-23T14:20:11.130Z,2.55
2022-10-23T14:25:50.285Z,2.35
2022-10-23T14:31:19.625Z,3.00
2022-10-23T14:37:08.045Z,3.22
2022-10-23T14:55:49.607Z,4.22
2022-10-23T15:12:31.485Z,2.33
2022-10-23T15:17:24.602Z,2.33
2022-10-23T15:22:19.051Z,2.50
2022-10-23T15:27:16.831Z,3.08
2022-10-23T15:32:13.970Z,3.33
2022-10-23T15:37:07.221Z,3.88
2022-10-23T15:42:00.902Z,3.58
2022-10-23T15:46:57.082Z,3.40
2022-10-23T15:51:53.450Z,3.67
2022-10-23T15:56:47.162Z,3.90
2022-10-23T16:01:40.477Z,3.97
2022-10-23T16:06:35.602Z,4.18
2022-10-23T16:11:31.982Z,3.50
2022-10-23T16:16:26.012Z,5.82
2022-10-23T16:21:21.415Z,3.38
2022-10-23T16:26:16.622Z,4.13
2022-10-23T16:31:11.194Z,2.80
2022-10-23T16:36:05.261Z,4.70
2022-10-23T16:41:10.762Z,6.10
2022-10-23T16:46:23.654Z,4.25
2022-10-23T16:51:19.213Z,6.07
2022-10-23T16:56:18.617Z,4.32
2022-10-23T17:01:14.775Z,4.90
2022-10-23T17:06:12.149Z,5.45
2022-10-23T17:11:10.548Z,5.93
2022-10-23T17:16:06.047Z,6.35
2022-10-23T17:20:59.863Z,7.22
2022-10-23T17:25:54.961Z,4.88
2022-10-23T17:30:51.234Z,4.70
2022-10-23T17:35:45.442Z,4.70
2022-10-23T17:40:38.787Z,7.65
2022-10-23T17:45:35.851Z,7.50
2022-10-23T17:50:29.087Z,5.47
2022-10-23T17:55:22.210Z,3.58
2022-10-23T18:00:16.243Z,4.88
2022-10-23T18:05:11.409Z,5.07
2022-10-23T18:10:05.371Z,3.85
2022-10-23T18:14:58.569Z,3.70
2022-10-23T18:19:51.870Z,3.33
2022-10-23T18:24:46.391Z,4.13
2022-10-23T18:29:40.222Z,3.13
2022-10-23T18:34:33.484Z,4.75
2022-10-23T18:39:27.047Z,5.03
2022-10-23T18:44:22.782Z,5.07
2022-10-23T18:49:17.204Z,4.75
2022-10-23T18:54:13.511Z,4.30
2022-10-23T18:59:11.337Z,4.05
2022-10-23T19:04:07.126Z,3.80
2022-10-23T19:09:00.489Z,4.38
2022-10-23T19:13:53.714Z,4.68
2022-10-23T19:18:50.698Z,4.68
2022-10-23T19:23:45.794Z,5.13
2022-10-23T19:28:41.212Z,4.28
2022-10-23T19:33:34.516Z,3.83
2022-10-23T19:38:27.715Z,4.93
2022-10-23T19:43:22.450Z,4.90
2022-10-23T19:48:15.567Z,5.13
2022-10-23T19:53:08.981Z,5.78
2022-10-23T19:58:02.156Z,5.80
2022-10-23T20:02:57.056Z,7.53
2022-10-23T20:07:52.446Z,8.30
2022-10-23T20:12:51.616Z,11.05
2022-10-23T20:17:57.188Z,10.48
2022-10-23T20:22:55.388Z,6.60
2022-10-23T20:27:48.969Z,7.47
2022-10-23T20:32:45.861Z,8.32
2022-10-23T20:37:41.013Z,11.52
2022-10-23T20:42:34.211Z,10.40
2022-10-23T20:47:27.563Z,6.55
2022-10-23T20:52:22.171Z,6.75
2022-10-23T20:57:20.536Z,7.18
2022-10-23T21:02:14.864Z,6.40
2022-10-23T21:07:10.690Z,6.13
2022-10-23T21:12:04.725Z,6.88
2022-10-23T21:16:59.209Z,6.53
2022-10-23T21:21:52.539Z,6.38
2022-10-23T21:26:46.393Z,6.35
2022-10-23T21:31:39.606Z,6.03
2022-10-23T21:36:48.183Z,6.25
2022-10-23T21:41:47.160Z,5.68
2022-10-23T21:46:41.867Z,5.32
2022-10-23T21:51:38.276Z,5.50
2022-10-23T21:56:33.805Z,5.05
2022-10-23T22:01:29.303Z,4.70
2022-10-23T22:06:28.915Z,4.57
2022-10-23T22:11:23.950Z,4.67
2022-10-23T22:16:19.548Z,4.50
2022-10-23T22:21:14.539Z,3.72
2022-10-23T22:26:09.701Z,4.20
2022-10-23T22:31:04.277Z,3.85
2022-10-23T22:36:01.937Z,3.80
2022-10-23T22:40:55.223Z,3.33
2022-10-23T22:45:48.518Z,3.72
2022-10-23T22:50:43.023Z,3.22
2022-10-23T22:55:36.739Z,3.30
2022-10-23T23:00:30.012Z,3.78
2022-10-23T23:05:23.235Z,3.70
2022-10-23T23:10:17.944Z,3.20
2022-10-23T23:15:11.425Z,3.55
2022-10-23T23:20:05.016Z,3.20
2022-10-23T23:24:58.396Z,3.70
2022-10-23T23:29:53.044Z,4.32
2022-10-23T23:34:46.229Z,4.15
2022-10-23T23:39:39.433Z,4.00
2022-10-23T23:44:32.670Z,4.38
2022-10-23T23:49:27.175Z,4.80
2022-10-23T23:54:20.323Z,4.93
2022-10-23T23:59:13.527Z,4.40
